UAL1328 SEGU-SKBO
Flight info
| Callsign | UAL1328 |
|---|---|
| Flight time | 1h 29m |
| Altitude | 38000 |
| Route | USOGI1 PAMIS UP533 BOKAN/N0453F390 DCT GIR GIR5E |
| Aircraft | B736/M-SDE2E3FGHIRWXY/LB1 |
Departure
| Time | 2026-04-25 00:51 |
|---|---|
| Airport | José Joaquín de Olmedo International Airport (SEGU) |
Arrival
| Time | 2026-04-25 02:21 |
|---|---|
| Airport | El Dorado International Airport (SKBO) |
| Time | Latitude | Longitude | Altitude | Speed | Heading |
|---|---|---|---|---|---|
| 2026-04-25 00:19 | -2.14720 | -79.88239 | 20 ft | 0 kts | 296° |
| 2026-04-25 00:42 | -2.14721 | -79.88238 | 20 ft | 2 kts | 296° |
| 2026-04-25 00:42 | -2.14728 | -79.88223 | 20 ft | 2 kts | 295° |
| 2026-04-25 00:42 | -2.14734 | -79.88209 | 21 ft | 2 kts | 282° |
| 2026-04-25 00:43 | -2.14732 | -79.88198 | 22 ft | 0 kts | 204° |
| 2026-04-25 00:43 | -2.14731 | -79.88198 | 22 ft | 0 kts | 205° |
| 2026-04-25 00:46 | -2.14732 | -79.88198 | 22 ft | 0 kts | 205° |
| 2026-04-25 00:47 | -2.14754 | -79.88198 | 22 ft | 7 kts | 157° |
| 2026-04-25 00:47 | -2.14785 | -79.88161 | 20 ft | 9 kts | 119° |
| 2026-04-25 00:47 | -2.14821 | -79.88098 | 21 ft | 11 kts | 120° |
| 2026-04-25 00:47 | -2.14821 | -79.88032 | 22 ft | 10 kts | 53° |
| 2026-04-25 00:48 | -2.14763 | -79.87992 | 21 ft | 10 kts | 30° |
| 2026-04-25 00:48 | -2.14703 | -79.87959 | 20 ft | 10 kts | 31° |
| 2026-04-25 00:48 | -2.14659 | -79.87910 | 20 ft | 9 kts | 69° |
| 2026-04-25 00:48 | -2.14649 | -79.87876 | 20 ft | 0 kts | 73° |
| 2026-04-25 00:49 | -2.14647 | -79.87871 | 20 ft | 5 kts | 71° |
| 2026-04-25 00:49 | -2.14634 | -79.87817 | 20 ft | 9 kts | 81° |
| 2026-04-25 00:50 | -2.14661 | -79.87759 | 20 ft | 10 kts | 156° |
| 2026-04-25 00:50 | -2.14727 | -79.87780 | 21 ft | 10 kts | 209° |
| 2026-04-25 00:50 | -2.14763 | -79.87801 | 20 ft | 0 kts | 210° |
| 2026-04-25 00:50 | -2.14840 | -79.87845 | 20 ft | 44 kts | 210° |
| 2026-04-25 00:51 | -2.15320 | -79.88121 | 21 ft | 114 kts | 210° |
| 2026-04-25 00:51 | -2.16169 | -79.88614 | 111 ft | 160 kts | 210° |
| 2026-04-25 00:51 | -2.17189 | -79.89190 | 627 ft | 176 kts | 209° |
| 2026-04-25 00:51 | -2.18297 | -79.89792 | 1245 ft | 183 kts | 210° |
| 2026-04-25 00:52 | -2.19422 | -79.90379 | 2105 ft | 185 kts | 209° |
| 2026-04-25 00:52 | -2.20725 | -79.90749 | 2549 ft | 213 kts | 176° |
| 2026-04-25 00:52 | -2.22123 | -79.90076 | 2852 ft | 237 kts | 131° |
| 2026-04-25 00:52 | -2.22747 | -79.88576 | 3504 ft | 240 kts | 93° |
| 2026-04-25 00:53 | -2.22561 | -79.86918 | 4304 ft | 240 kts | 71° |
| 2026-04-25 00:53 | -2.21712 | -79.85502 | 5069 ft | 241 kts | 44° |
| 2026-04-25 00:53 | -2.20400 | -79.84440 | 5749 ft | 246 kts | 38° |
| 2026-04-25 00:53 | -2.19033 | -79.83411 | 6414 ft | 252 kts | 37° |
| 2026-04-25 00:54 | -2.17557 | -79.82302 | 6822 ft | 274 kts | 37° |
| 2026-04-25 00:54 | -2.16013 | -79.81133 | 7569 ft | 281 kts | 38° |
| 2026-04-25 00:54 | -2.14463 | -79.79951 | 8397 ft | 285 kts | 37° |
| 2026-04-25 00:54 | -2.12870 | -79.78728 | 9231 ft | 290 kts | 38° |
| 2026-04-25 00:55 | -2.11276 | -79.77501 | 10056 ft | 293 kts | 38° |
| 2026-04-25 00:55 | -2.09604 | -79.76209 | 10456 ft | 315 kts | 38° |
| 2026-04-25 00:55 | -2.07791 | -79.74807 | 10713 ft | 337 kts | 38° |
| 2026-04-25 00:55 | -2.05904 | -79.73347 | 11298 ft | 346 kts | 37° |
| 2026-04-25 00:56 | -2.03994 | -79.71905 | 12008 ft | 350 kts | 34° |
| 2026-04-25 00:56 | -2.01912 | -79.70605 | 12773 ft | 354 kts | 30° |
| 2026-04-25 00:56 | -1.99756 | -79.69349 | 13506 ft | 359 kts | 29° |
| 2026-04-25 00:56 | -1.97570 | -79.68100 | 14192 ft | 363 kts | 29° |
| 2026-04-25 00:57 | -1.95384 | -79.66856 | 14885 ft | 366 kts | 29° |
| 2026-04-25 00:57 | -1.93147 | -79.65581 | 15649 ft | 369 kts | 29° |
| 2026-04-25 00:57 | -1.90928 | -79.64313 | 16346 ft | 372 kts | 29° |
| 2026-04-25 00:57 | -1.88663 | -79.63017 | 17037 ft | 376 kts | 29° |
| 2026-04-25 00:58 | -1.86402 | -79.61720 | 17680 ft | 380 kts | 29° |
| 2026-04-25 00:58 | -1.84080 | -79.60387 | 18301 ft | 385 kts | 29° |
| 2026-04-25 00:58 | -1.81747 | -79.59046 | 18899 ft | 387 kts | 29° |
| 2026-04-25 00:58 | -1.79429 | -79.57714 | 19539 ft | 388 kts | 30° |
| 2026-04-25 00:59 | -1.77067 | -79.56356 | 20191 ft | 391 kts | 30° |
| 2026-04-25 00:59 | -1.74702 | -79.54996 | 20779 ft | 393 kts | 30° |
| 2026-04-25 00:59 | -1.72313 | -79.53622 | 21361 ft | 396 kts | 30° |
| 2026-04-25 00:59 | -1.69912 | -79.52242 | 21938 ft | 399 kts | 30° |
| 2026-04-25 01:00 | -1.67521 | -79.50867 | 22501 ft | 401 kts | 30° |
| 2026-04-25 01:00 | -1.65091 | -79.49470 | 23093 ft | 404 kts | 30° |
| 2026-04-25 01:00 | -1.62643 | -79.48062 | 23630 ft | 406 kts | 30° |
| 2026-04-25 01:00 | -1.60208 | -79.46663 | 24066 ft | 409 kts | 31° |
| 2026-04-25 01:01 | -1.57707 | -79.45225 | 24514 ft | 411 kts | 31° |
| 2026-04-25 01:01 | -1.55222 | -79.43796 | 24955 ft | 414 kts | 31° |
| 2026-04-25 01:01 | -1.52739 | -79.42369 | 25452 ft | 416 kts | 31° |
| 2026-04-25 01:01 | -1.50211 | -79.40915 | 25844 ft | 420 kts | 31° |
| 2026-04-25 01:02 | -1.47660 | -79.39449 | 26281 ft | 422 kts | 32° |
| 2026-04-25 01:02 | -1.45134 | -79.37997 | 26717 ft | 424 kts | 32° |
| 2026-04-25 01:02 | -1.42569 | -79.36523 | 27144 ft | 426 kts | 32° |
| 2026-04-25 01:02 | -1.39975 | -79.35032 | 27552 ft | 429 kts | 32° |
| 2026-04-25 01:03 | -1.37407 | -79.33556 | 27944 ft | 431 kts | 32° |
| 2026-04-25 01:03 | -1.34798 | -79.32057 | 28340 ft | 433 kts | 33° |
| 2026-04-25 01:03 | -1.32171 | -79.30547 | 28704 ft | 436 kts | 33° |
| 2026-04-25 01:03 | -1.29529 | -79.29028 | 29069 ft | 439 kts | 33° |
| 2026-04-25 01:04 | -1.26868 | -79.27499 | 29509 ft | 441 kts | 33° |
| 2026-04-25 01:04 | -1.24218 | -79.25977 | 29905 ft | 442 kts | 33° |
| 2026-04-25 01:04 | -1.21549 | -79.24443 | 30254 ft | 444 kts | 33° |
| 2026-04-25 01:04 | -1.18845 | -79.22889 | 30530 ft | 447 kts | 33° |
| 2026-04-25 01:05 | -1.16170 | -79.21352 | 30813 ft | 449 kts | 33° |
| 2026-04-25 01:05 | -1.13439 | -79.19784 | 31084 ft | 451 kts | 33° |
| 2026-04-25 01:05 | -1.10741 | -79.18236 | 31348 ft | 453 kts | 33° |
| 2026-04-25 01:05 | -1.08003 | -79.16662 | 31631 ft | 454 kts | 33° |
| 2026-04-25 01:06 | -1.05236 | -79.15071 | 31922 ft | 455 kts | 33° |
| 2026-04-25 01:06 | -1.02525 | -79.13513 | 32284 ft | 454 kts | 33° |
| 2026-04-25 01:06 | -0.99788 | -79.11942 | 32837 ft | 452 kts | 33° |
| 2026-04-25 01:06 | -0.97054 | -79.10372 | 33213 ft | 451 kts | 33° |
| 2026-04-25 01:07 | -0.94363 | -79.08825 | 33590 ft | 451 kts | 33° |
| 2026-04-25 01:07 | -0.91636 | -79.07258 | 34004 ft | 450 kts | 33° |
| 2026-04-25 01:07 | -0.88922 | -79.05699 | 34419 ft | 449 kts | 33° |
| 2026-04-25 01:07 | -0.86198 | -79.04133 | 34695 ft | 450 kts | 33° |
| 2026-04-25 01:08 | -0.83494 | -79.02579 | 34982 ft | 451 kts | 32° |
| 2026-04-25 01:08 | -0.80773 | -79.01016 | 35355 ft | 449 kts | 33° |
| 2026-04-25 01:08 | -0.78132 | -78.99419 | 35700 ft | 447 kts | 34° |
| 2026-04-25 01:08 | -0.75509 | -78.97737 | 36068 ft | 447 kts | 35° |
| 2026-04-25 01:09 | -0.72906 | -78.96026 | 36295 ft | 447 kts | 36° |
| 2026-04-25 01:09 | -0.70332 | -78.94326 | 36639 ft | 445 kts | 35° |
| 2026-04-25 01:09 | -0.67750 | -78.92625 | 36992 ft | 443 kts | 35° |
| 2026-04-25 01:09 | -0.65153 | -78.90924 | 37300 ft | 442 kts | 35° |
| 2026-04-25 01:10 | -0.62567 | -78.89237 | 37546 ft | 443 kts | 35° |
| 2026-04-25 01:10 | -0.60014 | -78.87576 | 37777 ft | 443 kts | 35° |
| 2026-04-25 01:10 | -0.57428 | -78.85897 | 38076 ft | 441 kts | 35° |
| 2026-04-25 01:10 | -0.54845 | -78.84222 | 38312 ft | 441 kts | 35° |
| 2026-04-25 01:11 | -0.52260 | -78.82545 | 38317 ft | 443 kts | 35° |
| 2026-04-25 01:11 | -0.47107 | -78.79202 | 38344 ft | 443 kts | 35° |
| 2026-04-25 01:12 | -0.41967 | -78.75868 | 38295 ft | 441 kts | 35° |
| 2026-04-25 01:12 | -0.36827 | -78.72533 | 38296 ft | 440 kts | 35° |
| 2026-04-25 01:13 | -0.31690 | -78.69200 | 38291 ft | 438 kts | 35° |
| 2026-04-25 01:13 | -0.26577 | -78.65883 | 38314 ft | 438 kts | 36° |
| 2026-04-25 01:14 | -0.21479 | -78.62574 | 38328 ft | 439 kts | 35° |
| 2026-04-25 01:14 | -0.16351 | -78.59246 | 38370 ft | 438 kts | 35° |
| 2026-04-25 01:15 | -0.11231 | -78.55924 | 38358 ft | 439 kts | 35° |
| 2026-04-25 01:15 | -0.06112 | -78.52602 | 38373 ft | 441 kts | 35° |
| 2026-04-25 01:16 | -0.01016 | -78.49141 | 38387 ft | 442 kts | 38° |
| 2026-04-25 01:16 | 0.01451 | -78.47307 | 38274 ft | 442 kts | 39° |
| 2026-04-25 01:16 | 0.03882 | -78.45465 | 38270 ft | 443 kts | 39° |
| 2026-04-25 01:17 | 0.08795 | -78.41746 | 38277 ft | 444 kts | 39° |
| 2026-04-25 01:17 | 0.13758 | -78.38027 | 38317 ft | 444 kts | 39° |
| 2026-04-25 01:18 | 0.18671 | -78.34365 | 38282 ft | 442 kts | 39° |
| 2026-04-25 01:18 | 0.23606 | -78.30692 | 38278 ft | 441 kts | 39° |
| 2026-04-25 01:19 | 0.28503 | -78.27044 | 38285 ft | 440 kts | 39° |
| 2026-04-25 01:19 | 0.33436 | -78.23369 | 38277 ft | 440 kts | 39° |
| 2026-04-25 01:20 | 0.38331 | -78.19723 | 38300 ft | 440 kts | 38° |
| 2026-04-25 01:20 | 0.43218 | -78.16081 | 38298 ft | 440 kts | 38° |
| 2026-04-25 01:21 | 0.48125 | -78.12424 | 38263 ft | 441 kts | 38° |
| 2026-04-25 01:21 | 0.53066 | -78.08751 | 38252 ft | 441 kts | 38° |
| 2026-04-25 01:22 | 0.57989 | -78.05102 | 38252 ft | 441 kts | 38° |
| 2026-04-25 01:22 | 0.62904 | -78.01457 | 38238 ft | 441 kts | 38° |
| 2026-04-25 01:23 | 0.67867 | -77.97775 | 38231 ft | 442 kts | 38° |
| 2026-04-25 01:23 | 0.72786 | -77.94124 | 38240 ft | 442 kts | 39° |
| 2026-04-25 01:24 | 0.77708 | -77.90471 | 38228 ft | 442 kts | 39° |
| 2026-04-25 01:24 | 0.82570 | -77.86720 | 38221 ft | 441 kts | 42° |
| 2026-04-25 01:25 | 0.87168 | -77.82653 | 38218 ft | 441 kts | 44° |
| 2026-04-25 01:25 | 0.89459 | -77.80582 | 38384 ft | 441 kts | 44° |
| 2026-04-25 01:25 | 0.91738 | -77.78523 | 38400 ft | 441 kts | 44° |
| 2026-04-25 01:26 | 0.96297 | -77.74433 | 38393 ft | 441 kts | 44° |
| 2026-04-25 01:26 | 1.00870 | -77.70357 | 38380 ft | 441 kts | 44° |
| 2026-04-25 01:27 | 1.05436 | -77.66299 | 38333 ft | 441 kts | 43° |
| 2026-04-25 01:27 | 1.10035 | -77.62211 | 38290 ft | 441 kts | 43° |
| 2026-04-25 01:28 | 1.16896 | -77.56113 | 38216 ft | 441 kts | 44° |
| 2026-04-25 01:28 | 1.21489 | -77.52029 | 38154 ft | 442 kts | 44° |
| 2026-04-25 01:29 | 1.26076 | -77.47951 | 38175 ft | 443 kts | 44° |
| 2026-04-25 01:29 | 1.30668 | -77.43869 | 38180 ft | 443 kts | 44° |
| 2026-04-25 01:30 | 1.35281 | -77.39767 | 38211 ft | 442 kts | 44° |
| 2026-04-25 01:30 | 1.39867 | -77.35689 | 38221 ft | 443 kts | 44° |
| 2026-04-25 01:31 | 1.42173 | -77.33638 | 38105 ft | 443 kts | 44° |
| 2026-04-25 01:31 | 1.44482 | -77.31585 | 38095 ft | 444 kts | 44° |
| 2026-04-25 01:31 | 1.49078 | -77.27498 | 38069 ft | 444 kts | 44° |
| 2026-04-25 01:32 | 1.53714 | -77.23375 | 38056 ft | 445 kts | 44° |
| 2026-04-25 01:32 | 1.58333 | -77.19266 | 38085 ft | 445 kts | 44° |
| 2026-04-25 01:33 | 1.62979 | -77.15134 | 38094 ft | 446 kts | 44° |
| 2026-04-25 01:33 | 1.67595 | -77.11028 | 38047 ft | 446 kts | 44° |
| 2026-04-25 01:34 | 1.71457 | -77.07593 | 38072 ft | 446 kts | 44° |
| 2026-04-25 01:34 | 1.76074 | -77.03486 | 38080 ft | 445 kts | 44° |
| 2026-04-25 01:35 | 1.81471 | -76.98684 | 38049 ft | 445 kts | 44° |
| 2026-04-25 01:35 | 1.85338 | -76.95243 | 38049 ft | 445 kts | 44° |
| 2026-04-25 01:36 | 1.89928 | -76.91158 | 38079 ft | 444 kts | 44° |
| 2026-04-25 01:36 | 1.94553 | -76.87042 | 38068 ft | 444 kts | 44° |
| 2026-04-25 01:37 | 1.99151 | -76.82951 | 38068 ft | 444 kts | 44° |
| 2026-04-25 01:37 | 2.03791 | -76.78821 | 38090 ft | 444 kts | 44° |
| 2026-04-25 01:38 | 2.08392 | -76.74726 | 38090 ft | 444 kts | 44° |
| 2026-04-25 01:38 | 2.13001 | -76.70622 | 38096 ft | 445 kts | 44° |
| 2026-04-25 01:39 | 2.17638 | -76.66494 | 38115 ft | 445 kts | 44° |
| 2026-04-25 01:39 | 2.22240 | -76.62397 | 38143 ft | 445 kts | 44° |
| 2026-04-25 01:40 | 2.26884 | -76.58262 | 38150 ft | 445 kts | 44° |
| 2026-04-25 01:40 | 2.31497 | -76.54155 | 38171 ft | 445 kts | 44° |
| 2026-04-25 01:41 | 2.36120 | -76.50037 | 38182 ft | 447 kts | 44° |
| 2026-04-25 01:41 | 2.40764 | -76.45902 | 38157 ft | 448 kts | 44° |
| 2026-04-25 01:42 | 2.45427 | -76.41747 | 38174 ft | 448 kts | 44° |
| 2026-04-25 01:42 | 2.50078 | -76.37604 | 38162 ft | 448 kts | 44° |
| 2026-04-25 01:43 | 2.54732 | -76.33458 | 38156 ft | 448 kts | 44° |
| 2026-04-25 01:43 | 2.59389 | -76.29308 | 38123 ft | 449 kts | 44° |
| 2026-04-25 01:44 | 2.64041 | -76.25164 | 38120 ft | 449 kts | 44° |
| 2026-04-25 01:44 | 2.68715 | -76.20998 | 38141 ft | 449 kts | 44° |
| 2026-04-25 01:45 | 2.73379 | -76.16841 | 38144 ft | 450 kts | 44° |
| 2026-04-25 01:45 | 2.78049 | -76.12679 | 38123 ft | 451 kts | 44° |
| 2026-04-25 01:46 | 2.82754 | -76.08484 | 38125 ft | 451 kts | 44° |
| 2026-04-25 01:46 | 2.87424 | -76.04322 | 38124 ft | 450 kts | 44° |
| 2026-04-25 01:47 | 2.92074 | -76.00174 | 38129 ft | 451 kts | 44° |
| 2026-04-25 01:47 | 2.96751 | -75.96003 | 38145 ft | 451 kts | 44° |
| 2026-04-25 01:48 | 3.01462 | -75.91802 | 38136 ft | 451 kts | 44° |
| 2026-04-25 01:48 | 3.06139 | -75.87630 | 38139 ft | 451 kts | 44° |
| 2026-04-25 01:49 | 3.10840 | -75.83436 | 38145 ft | 452 kts | 44° |
| 2026-04-25 01:49 | 3.15527 | -75.79254 | 38118 ft | 452 kts | 44° |
| 2026-04-25 01:50 | 3.20194 | -75.75091 | 38093 ft | 450 kts | 44° |
| 2026-04-25 01:50 | 3.24882 | -75.70908 | 38099 ft | 450 kts | 44° |
| 2026-04-25 01:51 | 3.29543 | -75.66746 | 38098 ft | 451 kts | 44° |
| 2026-04-25 01:51 | 3.34210 | -75.62580 | 38044 ft | 451 kts | 44° |
| 2026-04-25 01:52 | 3.38905 | -75.58388 | 38053 ft | 451 kts | 44° |
| 2026-04-25 01:52 | 3.43579 | -75.54215 | 38058 ft | 451 kts | 44° |
| 2026-04-25 01:53 | 3.48278 | -75.50019 | 38065 ft | 452 kts | 44° |
| 2026-04-25 01:53 | 3.52955 | -75.45841 | 38026 ft | 452 kts | 44° |
| 2026-04-25 01:54 | 3.57156 | -75.42089 | 38022 ft | 452 kts | 44° |
| 2026-04-25 01:54 | 3.61833 | -75.37910 | 38027 ft | 452 kts | 44° |
| 2026-04-25 01:55 | 3.66508 | -75.33733 | 38012 ft | 451 kts | 44° |
| 2026-04-25 01:55 | 3.71204 | -75.29536 | 38029 ft | 450 kts | 44° |
| 2026-04-25 01:56 | 3.73513 | -75.27474 | 38007 ft | 436 kts | 44° |
| 2026-04-25 01:56 | 3.75708 | -75.25516 | 38028 ft | 420 kts | 44° |
| 2026-04-25 01:56 | 3.77864 | -75.23592 | 38006 ft | 405 kts | 44° |
| 2026-04-25 01:56 | 3.79941 | -75.21738 | 38027 ft | 391 kts | 44° |
| 2026-04-25 01:57 | 3.83883 | -75.18213 | 38053 ft | 375 kts | 45° |
| 2026-04-25 01:57 | 3.85825 | -75.16472 | 38069 ft | 383 kts | 45° |
| 2026-04-25 01:58 | 3.89891 | -75.12826 | 38074 ft | 398 kts | 44° |
| 2026-04-25 01:58 | 3.94092 | -75.09066 | 38074 ft | 413 kts | 44° |
| 2026-04-25 01:59 | 3.98441 | -75.05176 | 37954 ft | 431 kts | 44° |
| 2026-04-25 01:59 | 4.00722 | -75.03134 | 37382 ft | 441 kts | 44° |
| 2026-04-25 01:59 | 4.03023 | -75.01077 | 36851 ft | 443 kts | 44° |
| 2026-04-25 01:59 | 4.05354 | -74.98993 | 35945 ft | 451 kts | 45° |
| 2026-04-25 02:00 | 4.07704 | -74.96890 | 35014 ft | 458 kts | 45° |
| 2026-04-25 02:00 | 4.10094 | -74.94750 | 34119 ft | 463 kts | 45° |
| 2026-04-25 02:00 | 4.12513 | -74.92585 | 33117 ft | 467 kts | 45° |
| 2026-04-25 02:00 | 4.14919 | -74.90433 | 32150 ft | 469 kts | 45° |
| 2026-04-25 02:01 | 4.17398 | -74.88264 | 31195 ft | 473 kts | 40° |
| 2026-04-25 02:01 | 4.20251 | -74.86642 | 30270 ft | 480 kts | 23° |
| 2026-04-25 02:01 | 4.23514 | -74.85845 | 29253 ft | 484 kts | 9° |
| 2026-04-25 02:01 | 4.26862 | -74.85430 | 28241 ft | 482 kts | 8° |
| 2026-04-25 02:02 | 4.30170 | -74.85065 | 27396 ft | 479 kts | 7° |
| 2026-04-25 02:02 | 4.33432 | -74.84691 | 27138 ft | 462 kts | 8° |
| 2026-04-25 02:02 | 4.36594 | -74.84298 | 26827 ft | 452 kts | 8° |
| 2026-04-25 02:02 | 4.39754 | -74.83880 | 26540 ft | 463 kts | 8° |
| 2026-04-25 02:03 | 4.42912 | -74.83457 | 26238 ft | 459 kts | 8° |
| 2026-04-25 02:03 | 4.46022 | -74.83043 | 25916 ft | 438 kts | 8° |
| 2026-04-25 02:03 | 4.48986 | -74.82651 | 25595 ft | 420 kts | 8° |
| 2026-04-25 02:03 | 4.51840 | -74.82276 | 25220 ft | 407 kts | 7° |
| 2026-04-25 02:04 | 4.54629 | -74.81908 | 24817 ft | 401 kts | 7° |
| 2026-04-25 02:04 | 4.57352 | -74.81549 | 24462 ft | 397 kts | 7° |
| 2026-04-25 02:04 | 4.60087 | -74.81188 | 24073 ft | 392 kts | 7° |
| 2026-04-25 02:04 | 4.62790 | -74.80831 | 23675 ft | 389 kts | 7° |
| 2026-04-25 02:05 | 4.65433 | -74.80482 | 23213 ft | 385 kts | 7° |
| 2026-04-25 02:05 | 4.68101 | -74.80130 | 22751 ft | 382 kts | 7° |
| 2026-04-25 02:05 | 4.70698 | -74.79787 | 22307 ft | 380 kts | 7° |
| 2026-04-25 02:05 | 4.73327 | -74.79440 | 21926 ft | 377 kts | 7° |
| 2026-04-25 02:06 | 4.75927 | -74.79098 | 21487 ft | 375 kts | 6° |
| 2026-04-25 02:06 | 4.78493 | -74.79069 | 21051 ft | 372 kts | 352° |
| 2026-04-25 02:06 | 4.81041 | -74.79441 | 20646 ft | 368 kts | 349° |
| 2026-04-25 02:06 | 4.83575 | -74.79855 | 20220 ft | 367 kts | 350° |
| 2026-04-25 02:07 | 4.86102 | -74.80255 | 19846 ft | 364 kts | 350° |
| 2026-04-25 02:07 | 4.88570 | -74.80620 | 19439 ft | 360 kts | 350° |
| 2026-04-25 02:07 | 4.91024 | -74.80968 | 19025 ft | 350 kts | 351° |
| 2026-04-25 02:07 | 4.93417 | -74.81300 | 18539 ft | 342 kts | 352° |
| 2026-04-25 02:08 | 4.95746 | -74.81228 | 18030 ft | 338 kts | 11° |
| 2026-04-25 02:08 | 4.97975 | -74.80568 | 17611 ft | 331 kts | 15° |
| 2026-04-25 02:08 | 5.00170 | -74.79850 | 17277 ft | 331 kts | 15° |
| 2026-04-25 02:08 | 5.02374 | -74.79128 | 17085 ft | 333 kts | 17° |
| 2026-04-25 02:09 | 5.04552 | -74.78427 | 16945 ft | 331 kts | 15° |
| 2026-04-25 02:09 | 5.06758 | -74.77730 | 16806 ft | 331 kts | 16° |
| 2026-04-25 02:09 | 5.08959 | -74.77036 | 16684 ft | 331 kts | 16° |
| 2026-04-25 02:09 | 5.11131 | -74.76267 | 16623 ft | 329 kts | 25° |
| 2026-04-25 02:10 | 5.12940 | -74.74903 | 16691 ft | 330 kts | 41° |
| 2026-04-25 02:10 | 5.14624 | -74.73286 | 16639 ft | 335 kts | 45° |
| 2026-04-25 02:10 | 5.15828 | -74.71335 | 16642 ft | 335 kts | 72° |
| 2026-04-25 02:10 | 5.16124 | -74.69024 | 16671 ft | 335 kts | 94° |
| 2026-04-25 02:11 | 5.15537 | -74.66766 | 16695 ft | 335 kts | 116° |
| 2026-04-25 02:11 | 5.14208 | -74.64866 | 16686 ft | 332 kts | 133° |
| 2026-04-25 02:11 | 5.12619 | -74.63197 | 16623 ft | 325 kts | 135° |
| 2026-04-25 02:11 | 5.11059 | -74.61641 | 16517 ft | 315 kts | 136° |
| 2026-04-25 02:12 | 5.09488 | -74.60084 | 16077 ft | 318 kts | 136° |
| 2026-04-25 02:12 | 5.07914 | -74.58514 | 15776 ft | 316 kts | 135° |
| 2026-04-25 02:12 | 5.06406 | -74.56995 | 15736 ft | 305 kts | 135° |
| 2026-04-25 02:12 | 5.04921 | -74.55491 | 15475 ft | 302 kts | 135° |
| 2026-04-25 02:13 | 5.03411 | -74.53957 | 14753 ft | 317 kts | 135° |
| 2026-04-25 02:13 | 5.01846 | -74.52362 | 14232 ft | 321 kts | 135° |
| 2026-04-25 02:13 | 5.00307 | -74.50791 | 13993 ft | 317 kts | 136° |
| 2026-04-25 02:13 | 4.98761 | -74.49214 | 13803 ft | 315 kts | 135° |
| 2026-04-25 02:14 | 4.97224 | -74.47644 | 13606 ft | 314 kts | 135° |
| 2026-04-25 02:14 | 4.95694 | -74.46080 | 13411 ft | 313 kts | 135° |
| 2026-04-25 02:14 | 4.94178 | -74.44532 | 13213 ft | 306 kts | 135° |
| 2026-04-25 02:14 | 4.92702 | -74.43025 | 13028 ft | 299 kts | 135° |
| 2026-04-25 02:15 | 4.91288 | -74.41578 | 12915 ft | 289 kts | 134° |
| 2026-04-25 02:15 | 4.90016 | -74.40061 | 12895 ft | 277 kts | 128° |
| 2026-04-25 02:15 | 4.88866 | -74.38530 | 12894 ft | 275 kts | 127° |
| 2026-04-25 02:15 | 4.87718 | -74.36985 | 12922 ft | 276 kts | 127° |
| 2026-04-25 02:16 | 4.86565 | -74.35448 | 12930 ft | 277 kts | 127° |
| 2026-04-25 02:16 | 4.85408 | -74.33917 | 12734 ft | 273 kts | 127° |
| 2026-04-25 02:16 | 4.84260 | -74.32393 | 12412 ft | 274 kts | 127° |
| 2026-04-25 02:16 | 4.83115 | -74.30871 | 12093 ft | 269 kts | 126° |
| 2026-04-25 02:17 | 4.82015 | -74.29408 | 11737 ft | 260 kts | 126° |
| 2026-04-25 02:17 | 4.80942 | -74.27981 | 11413 ft | 251 kts | 126° |
| 2026-04-25 02:17 | 4.79922 | -74.26624 | 11121 ft | 235 kts | 126° |
| 2026-04-25 02:17 | 4.78970 | -74.25358 | 10846 ft | 223 kts | 125° |
| 2026-04-25 02:18 | 4.78058 | -74.24145 | 10575 ft | 212 kts | 126° |
| 2026-04-25 02:18 | 4.77200 | -74.23004 | 10325 ft | 200 kts | 126° |
| 2026-04-25 02:18 | 4.76390 | -74.21926 | 10090 ft | 186 kts | 127° |
| 2026-04-25 02:18 | 4.75637 | -74.20924 | 9842 ft | 174 kts | 127° |
| 2026-04-25 02:19 | 4.74920 | -74.19970 | 9622 ft | 166 kts | 127° |
| 2026-04-25 02:19 | 4.74272 | -74.19109 | 9421 ft | 150 kts | 127° |
| 2026-04-25 02:19 | 4.73652 | -74.18283 | 9189 ft | 148 kts | 126° |
| 2026-04-25 02:19 | 4.73023 | -74.17446 | 8977 ft | 155 kts | 127° |
| 2026-04-25 02:20 | 4.72374 | -74.16584 | 8743 ft | 153 kts | 127° |
| 2026-04-25 02:20 | 4.71743 | -74.15744 | 8537 ft | 151 kts | 126° |
| 2026-04-25 02:20 | 4.71323 | -74.15185 | 8401 ft | 149 kts | 127° |
| 2026-04-25 02:20 | 4.70575 | -74.14196 | 8360 ft | 108 kts | 127° |
| 2026-04-25 02:21 | 4.70298 | -74.13831 | 8358 ft | 76 kts | 128° |
| 2026-04-25 02:21 | 4.70046 | -74.13632 | 8360 ft | 20 kts | 158° |
| 2026-04-25 02:21 | 4.69962 | -74.13600 | 8360 ft | 16 kts | 158° |
| 2026-04-25 02:21 | 4.69931 | -74.13587 | 8360 ft | 0 kts | 158° |
| 2026-04-25 02:22 | 4.69924 | -74.13585 | 8360 ft | 6 kts | 158° |
| 2026-04-25 02:23 | 4.69858 | -74.13569 | 8361 ft | 12 kts | 196° |
| 2026-04-25 02:23 | 4.69787 | -74.13619 | 8361 ft | 13 kts | 218° |
| 2026-04-25 02:23 | 4.69716 | -74.13621 | 8361 ft | 12 kts | 132° |
| 2026-04-25 02:23 | 4.69684 | -74.13589 | 8361 ft | 2 kts | 168° |
| 2026-04-25 02:24 | 4.69672 | -74.13599 | 8361 ft | 2 kts | 223° |
| 2026-04-25 02:24 | 4.69659 | -74.13609 | 8361 ft | 2 kts | 208° |
| 2026-04-25 02:24 | 4.69648 | -74.13620 | 8361 ft | 2 kts | 228° |
| 2026-04-25 02:24 | 4.69636 | -74.13631 | 8361 ft | 2 kts | 222° |
| 2026-04-25 02:25 | 4.69634 | -74.13633 | 8361 ft | 0 kts | 222° |